createdAt,value
2022-10-21T00:01:45.756Z,20.23
2022-10-21T00:04:16.310Z,20.15
2022-10-21T00:06:48.375Z,23.17
2022-10-21T00:09:18.978Z,16.95
2022-10-21T00:11:49.774Z,19.15
2022-10-21T00:14:21.491Z,19.65
2022-10-21T00:16:51.890Z,15.05
2022-10-21T00:19:22.186Z,15.55
2022-10-21T00:21:52.758Z,14.88
2022-10-21T00:24:23.713Z,15.05
2022-10-21T00:26:54.360Z,16.83
2022-10-21T00:29:24.772Z,16.75
2022-10-21T00:31:58.036Z,17.38
2022-10-21T00:34:30.729Z,16.15
2022-10-21T00:37:01.901Z,17.10
2022-10-21T00:39:32.756Z,17.90
2022-10-21T00:42:03.243Z,16.83
2022-10-21T00:44:35.038Z,14.38
2022-10-21T00:47:07.431Z,16.17
2022-10-21T00:49:45.604Z,17.13
2022-10-21T00:52:22.084Z,16.60
2022-10-21T00:54:54.183Z,13.35
2022-10-21T00:57:25.687Z,13.65
2022-10-21T00:59:57.950Z,16.23
2022-10-21T01:02:28.614Z,14.55
2022-10-21T01:05:00.912Z,14.07
2022-10-21T01:07:31.003Z,15.32
2022-10-21T01:10:01.247Z,14.75
2022-10-21T01:12:51.467Z,12.38
2022-10-21T01:15:28.093Z,15.55
2022-10-21T01:18:08.290Z,13.95
2022-10-21T01:20:57.588Z,17.30
2022-10-21T01:23:47.616Z,13.00
2022-10-21T01:26:37.570Z,19.23
2022-10-21T01:29:27.531Z,13.93
2022-10-21T01:32:00.737Z,15.73
2022-10-21T01:34:50.710Z,19.50
2022-10-21T01:37:30.402Z,13.77
2022-10-21T01:40:08.499Z,13.52
2022-10-21T01:42:44.464Z,32.95
2022-10-21T01:45:21.881Z,13.40
2022-10-21T01:48:11.612Z,13.82
2022-10-21T01:50:45.667Z,11.57
2022-10-21T01:53:17.272Z,13.95
2022-10-21T01:55:48.500Z,12.52
2022-10-21T01:58:21.134Z,12.23
2022-10-21T02:00:53.420Z,14.98
2022-10-21T02:03:29.518Z,13.85
2022-10-21T02:05:59.722Z,11.68
2022-10-21T02:08:29.957Z,14.30
2022-10-21T02:11:02.965Z,12.75
2022-10-21T02:13:35.001Z,8.57
2022-10-21T02:16:09.314Z,8.65
2022-10-21T02:18:40.206Z,7.53
2022-10-21T02:21:17.835Z,8.18
2022-10-21T02:24:00.542Z,11.68
2022-10-21T02:26:30.796Z,6.65
2022-10-21T02:29:01.852Z,7.43
2022-10-21T02:31:51.863Z,7.75
2022-10-21T02:34:32.654Z,11.73
2022-10-21T02:37:22.298Z,21.67
2022-10-21T02:39:58.718Z,11.20
2022-10-21T02:42:31.541Z,9.70
2022-10-21T02:45:03.638Z,8.23
2022-10-21T02:47:34.172Z,7.63
2022-10-21T02:50:04.332Z,8.57
2022-10-21T02:52:35.187Z,8.80
2022-10-21T02:55:05.909Z,8.57
2022-10-21T02:57:36.899Z,6.03
2022-10-21T03:00:08.271Z,6.43
2022-10-21T03:02:38.737Z,6.57
2022-10-21T03:05:09.290Z,8.20
2022-10-21T03:07:40.054Z,8.32
2022-10-21T03:10:11.079Z,17.88
2022-10-21T03:12:41.590Z,22.63
2022-10-21T03:15:13.106Z,7.20
2022-10-21T03:17:43.789Z,9.40
2022-10-21T03:20:14.393Z,7.78
2022-10-21T03:22:45.738Z,6.80
2022-10-21T03:25:16.227Z,7.20
2022-10-21T03:27:46.974Z,8.80
2022-10-21T03:30:17.803Z,18.25
2022-10-21T03:32:48.122Z,22.13
2022-10-21T03:35:18.902Z,22.30
2022-10-21T03:37:50.364Z,7.40
2022-10-21T03:40:20.999Z,7.45
2022-10-21T03:42:50.927Z,6.80
2022-10-21T03:45:21.371Z,8.63
2022-10-21T03:47:51.855Z,8.60
2022-10-21T03:50:26.068Z,9.30
2022-10-21T03:52:57.806Z,7.15
2022-10-21T03:55:28.299Z,7.72
2022-10-21T03:57:59.261Z,6.65
2022-10-21T04:00:31.685Z,7.03
2022-10-21T04:03:02.349Z,7.85
2022-10-21T04:05:32.751Z,6.97
2022-10-21T04:08:03.286Z,7.05
2022-10-21T04:10:33.663Z,6.70
2022-10-21T04:13:04.136Z,7.07
2022-10-21T04:15:34.702Z,7.38
2022-10-21T04:18:05.247Z,8.60
2022-10-21T04:20:35.451Z,9.43
2022-10-21T04:23:06.631Z,7.32
2022-10-21T04:25:37.323Z,8.15
2022-10-21T04:28:08.103Z,6.75
2022-10-21T04:30:38.439Z,9.15
2022-10-21T04:33:08.592Z,8.25
2022-10-21T04:35:42.044Z,7.57
2022-10-21T04:38:12.128Z,5.85
2022-10-21T04:40:42.520Z,6.22
2022-10-21T04:43:13.250Z,6.20
2022-10-21T04:45:43.980Z,6.60
2022-10-21T04:48:15.324Z,8.63
2022-10-21T04:50:46.097Z,6.95
2022-10-21T04:53:17.318Z,10.60
2022-10-21T04:55:48.280Z,8.75
2022-10-21T04:58:21.780Z,6.40
2022-10-21T05:00:53.347Z,6.32
2022-10-21T05:03:25.387Z,6.00
2022-10-21T05:05:56.205Z,7.63
2022-10-21T05:08:26.717Z,8.38
2022-10-21T05:11:01.741Z,6.00
2022-10-21T05:13:32.450Z,6.97
2022-10-21T05:16:04.662Z,7.25
2022-10-21T05:18:35.468Z,6.28
2022-10-21T05:21:05.896Z,6.80
2022-10-21T05:23:36.122Z,6.50
2022-10-21T05:26:06.992Z,6.50
2022-10-21T05:28:38.024Z,6.65
2022-10-21T05:31:08.164Z,6.20
2022-10-21T05:33:37.979Z,6.70
2022-10-21T05:36:10.206Z,6.00
2022-10-21T05:38:40.155Z,6.25
2022-10-21T05:41:12.524Z,7.90
2022-10-21T05:43:43.561Z,6.93
2022-10-21T05:46:15.342Z,6.15
2022-10-21T05:48:45.783Z,6.68
2022-10-21T05:51:16.174Z,6.43
2022-10-21T05:53:46.333Z,5.80
2022-10-21T05:56:16.846Z,5.80
2022-10-21T05:58:47.229Z,6.00
2022-10-21T06:01:18.059Z,6.20
2022-10-21T06:03:48.126Z,6.72
2022-10-21T06:06:18.627Z,6.65
2022-10-21T06:08:49.051Z,7.32
2022-10-21T06:11:20.470Z,7.28
2022-10-21T06:13:51.099Z,6.63
2022-10-21T06:16:22.789Z,6.13
2022-10-21T06:18:53.470Z,6.50
2022-10-21T06:21:24.558Z,7.10
2022-10-21T06:23:57.970Z,8.05
2022-10-21T06:26:29.327Z,6.93
2022-10-21T06:29:01.825Z,6.72
2022-10-21T06:31:32.520Z,7.55
2022-10-21T06:34:02.978Z,7.45
2022-10-21T06:36:34.088Z,8.40
2022-10-21T06:39:04.487Z,7.70
2022-10-21T06:41:34.547Z,7.43
2022-10-21T06:44:05.025Z,7.93
2022-10-21T06:46:35.457Z,7.15
2022-10-21T06:49:06.131Z,6.88
2022-10-21T06:51:36.880Z,16.55
2022-10-21T06:54:08.275Z,16.00
2022-10-21T06:56:38.679Z,16.27
2022-10-21T06:59:09.321Z,14.30
2022-10-21T07:01:59.233Z,6.72
2022-10-21T07:04:29.859Z,7.53
2022-10-21T07:07:00.549Z,6.63
2022-10-21T07:09:32.288Z,6.35
2022-10-21T07:12:03.945Z,6.80
2022-10-21T07:14:35.040Z,7.03
2022-10-21T07:17:05.558Z,6.80
2022-10-21T07:19:36.424Z,7.13
2022-10-21T07:22:06.923Z,6.68
2022-10-21T07:24:37.743Z,7.53
2022-10-21T07:27:08.869Z,7.10
2022-10-21T07:29:39.282Z,6.43
2022-10-21T07:32:10.018Z,7.57
2022-10-21T07:34:40.727Z,7.35
2022-10-21T07:37:11.689Z,6.28
2022-10-21T07:39:42.634Z,9.15
2022-10-21T07:42:13.192Z,6.78
2022-10-21T07:44:43.398Z,6.57
2022-10-21T07:47:13.763Z,7.43
2022-10-21T07:49:44.037Z,7.70
2022-10-21T07:54:45.541Z,7.75
2022-10-21T07:57:15.939Z,7.47
2022-10-21T07:59:46.360Z,7.50
2022-10-21T08:02:17.328Z,7.32
2022-10-21T08:04:47.818Z,7.05
2022-10-21T08:07:17.945Z,7.30
2022-10-21T08:09:48.377Z,6.93
2022-10-21T08:12:18.558Z,6.85
2022-10-21T08:14:48.972Z,7.65
2022-10-21T08:17:19.369Z,8.48
2022-10-21T08:19:50.287Z,7.75
2022-10-21T08:22:20.646Z,7.28
2022-10-21T08:24:51.053Z,7.20
2022-10-21T08:27:21.229Z,8.10
2022-10-21T08:29:52.155Z,7.30
2022-10-21T08:32:22.629Z,8.10
2022-10-21T08:34:53.136Z,7.90
2022-10-21T08:37:25.526Z,7.88
2022-10-21T08:39:56.897Z,8.50
2022-10-21T08:42:28.474Z,7.93
2022-10-21T08:45:01.609Z,9.77
2022-10-21T08:47:36.492Z,9.07
2022-10-21T08:50:18.258Z,8.93
2022-10-21T08:52:50.727Z,10.23
2022-10-21T08:55:36.042Z,11.05
2022-10-21T08:58:06.980Z,8.25
2022-10-21T09:00:40.414Z,8.20
2022-10-21T09:03:21.736Z,8.45
2022-10-21T09:06:12.130Z,8.00
2022-10-21T09:08:57.561Z,8.80
2022-10-21T09:11:47.735Z,10.70
2022-10-21T09:14:37.551Z,8.57
2022-10-21T09:17:27.574Z,9.07
2022-10-21T09:20:17.245Z,8.00
2022-10-21T09:22:53.037Z,13.95
2022-10-21T09:25:27.569Z,12.63
2022-10-21T09:27:59.109Z,18.25
2022-10-21T09:30:29.744Z,13.27
2022-10-21T09:33:01.809Z,9.88
2022-10-21T09:35:49.805Z,11.00
2022-10-21T09:38:23.391Z,9.48
2022-10-21T09:41:00.599Z,9.45
2022-10-21T09:43:30.848Z,10.90
2022-10-21T09:46:01.748Z,8.98
2022-10-21T09:48:41.927Z,8.02
2022-10-21T09:51:44.230Z,10.25
2022-10-21T09:54:18.022Z,9.05
2022-10-21T09:57:08.001Z,9.68
2022-10-21T09:59:38.849Z,8.63
2022-10-21T10:02:17.470Z,8.80
2022-10-21T10:04:48.453Z,9.20
2022-10-21T10:07:38.105Z,9.00
2022-10-21T10:10:27.752Z,9.05
2022-10-21T10:12:59.848Z,8.85
2022-10-21T10:15:37.930Z,9.82
2022-10-21T10:18:21.480Z,9.38
2022-10-21T10:21:11.118Z,10.43
2022-10-21T10:23:50.681Z,10.40
2022-10-21T10:26:44.271Z,9.95
2022-10-21T10:29:32.481Z,18.75
2022-10-21T10:32:04.681Z,11.38
2022-10-21T10:34:37.931Z,9.95
2022-10-21T10:37:14.771Z,11.02
2022-10-21T10:39:48.619Z,15.15
2022-10-21T10:42:24.363Z,44.42
2022-10-21T10:44:57.706Z,121.40
2022-10-21T10:47:31.297Z,16.65
2022-10-21T10:50:02.029Z,12.20
2022-10-21T10:52:32.489Z,13.27
2022-10-21T10:55:22.992Z,16.38
2022-10-21T10:58:10.408Z,12.68
2022-10-21T11:00:45.572Z,17.13
2022-10-21T11:03:23.936Z,12.05
2022-10-21T11:05:58.441Z,11.98
2022-10-21T11:08:35.394Z,15.48
2022-10-21T11:11:06.913Z,34.92
2022-10-21T11:13:41.285Z,391.63
2022-10-21T11:16:40.832Z,308.27
2022-10-21T11:19:40.687Z,236.93
2022-10-21T11:22:30.709Z,148.00
2022-10-21T11:25:20.995Z,106.55
2022-10-21T11:28:11.046Z,75.30
2022-10-21T11:31:00.703Z,70.93
2022-10-21T11:33:45.121Z,68.35
2022-10-21T11:36:26.553Z,95.47
2022-10-21T11:39:20.580Z,145.23
2022-10-21T11:41:56.056Z,83.00
2022-10-21T11:44:31.007Z,93.45
2022-10-21T11:47:20.932Z,142.70
2022-10-21T11:50:00.918Z,250.82
2022-10-21T11:52:51.249Z,165.93
2022-10-21T11:55:41.171Z,160.20
2022-10-21T11:58:31.281Z,122.05
2022-10-21T12:01:10.719Z,116.30
2022-10-21T12:03:47.208Z,92.13
2022-10-21T12:06:29.874Z,75.68
2022-10-21T12:09:03.228Z,62.33
2022-10-21T12:11:44.113Z,66.18
2022-10-21T12:14:33.778Z,117.35
2022-10-21T12:17:06.102Z,110.80
2022-10-21T12:19:38.345Z,104.57
2022-10-21T12:22:10.591Z,97.10
2022-10-21T12:24:45.852Z,103.57
2022-10-21T12:27:35.775Z,102.45
2022-10-21T12:30:27.363Z,144.05
2022-10-21T12:33:17.243Z,161.10
2022-10-21T12:35:52.725Z,134.30
2022-10-21T12:38:27.348Z,138.18
2022-10-21T12:41:17.414Z,134.48
2022-10-21T12:43:54.731Z,111.47
2022-10-21T12:46:30.720Z,111.82
2022-10-21T12:49:03.756Z,114.57
2022-10-21T12:51:36.975Z,112.43
2022-10-21T12:54:10.656Z,122.72
2022-10-21T12:56:46.177Z,106.00
2022-10-21T12:59:36.669Z,79.65
2022-10-21T13:02:26.337Z,74.78
2022-10-21T13:04:58.651Z,62.38
2022-10-21T13:07:31.853Z,54.80
2022-10-21T13:10:17.099Z,48.78
2022-10-21T13:12:49.162Z,147.95
2022-10-21T13:15:38.898Z,116.50
2022-10-21T13:18:11.071Z,55.45
2022-10-21T13:20:47.673Z,44.15
2022-10-21T13:23:37.343Z,41.58
2022-10-21T13:26:09.640Z,38.13
2022-10-21T13:28:40.584Z,37.83
2022-10-21T13:31:11.509Z,31.13
2022-10-21T13:33:42.629Z,34.10
2022-10-21T13:36:13.896Z,39.75
2022-10-21T13:38:55.022Z,41.10
2022-10-21T13:41:28.413Z,43.75
2022-10-21T13:44:01.514Z,44.97
2022-10-21T13:46:44.005Z,45.55
2022-10-21T13:49:34.131Z,39.30
2022-10-21T13:52:04.874Z,39.60
2022-10-21T13:54:39.040Z,38.70
2022-10-21T13:57:10.669Z,34.28
2022-10-21T13:59:40.999Z,33.10
2022-10-21T14:02:25.045Z,35.70
2022-10-21T14:04:55.343Z,35.88
2022-10-21T14:07:26.214Z,38.53
2022-10-21T14:09:59.844Z,35.42
2022-10-21T14:12:33.165Z,37.35
2022-10-21T14:15:23.416Z,30.20
2022-10-21T14:17:59.608Z,37.63
2022-10-21T14:20:35.346Z,33.53
2022-10-21T14:23:07.421Z,33.03
2022-10-21T14:25:38.298Z,33.63
2022-10-21T14:28:09.299Z,31.63
2022-10-21T14:30:40.006Z,30.40
2022-10-21T14:33:12.707Z,35.75
2022-10-21T14:35:43.725Z,32.53
2022-10-21T14:38:35.426Z,27.50
2022-10-21T14:41:09.016Z,32.40
2022-10-21T14:43:43.614Z,36.15
2022-10-21T14:46:14.182Z,26.27
2022-10-21T14:48:50.617Z,27.40
2022-10-21T14:51:22.101Z,26.20
2022-10-21T14:53:57.891Z,20.58
2022-10-21T14:56:36.406Z,22.50
2022-10-21T14:59:20.136Z,23.17
2022-10-21T15:01:50.434Z,18.30
2022-10-21T15:04:39.971Z,23.75
2022-10-21T15:07:19.311Z,26.60
2022-10-21T15:10:03.257Z,28.88
2022-10-21T15:12:54.372Z,27.15
2022-10-21T15:15:48.263Z,21.52
2022-10-21T15:18:26.901Z,19.95
2022-10-21T15:20:59.704Z,20.55
2022-10-21T15:23:38.630Z,20.77
2022-10-21T15:26:28.592Z,22.80
2022-10-21T15:28:58.840Z,20.77
2022-10-21T15:31:30.495Z,22.98
2022-10-21T15:34:01.399Z,21.98
2022-10-21T15:36:31.733Z,20.38
2022-10-21T15:39:05.429Z,75.40
2022-10-21T15:41:38.676Z,40.83
2022-10-21T15:44:29.034Z,25.30
2022-10-21T15:47:02.160Z,26.08
2022-10-21T15:49:37.948Z,22.42
2022-10-21T15:52:08.057Z,26.98
2022-10-21T15:54:38.366Z,23.98
2022-10-21T15:57:15.881Z,23.58
2022-10-21T15:59:47.134Z,23.42
2022-10-21T16:02:19.596Z,32.33
2022-10-21T16:04:50.054Z,25.20
2022-10-21T16:07:22.165Z,26.85
2022-10-21T16:09:53.154Z,31.27
2022-10-21T16:12:24.615Z,27.60
2022-10-21T16:14:55.756Z,28.02
2022-10-21T16:17:30.170Z,27.90
2022-10-21T16:20:00.744Z,30.75
2022-10-21T16:22:32.356Z,27.77
2022-10-21T16:25:02.664Z,28.30
2022-10-21T16:27:43.689Z,28.42
2022-10-21T16:30:25.156Z,29.40
2022-10-21T16:32:55.975Z,29.80
2022-10-21T16:35:26.899Z,28.25
2022-10-21T16:37:57.706Z,27.52
2022-10-21T16:40:29.548Z,27.98
2022-10-21T16:43:00.229Z,27.08
2022-10-21T16:45:32.018Z,275.73
2022-10-21T16:48:03.404Z,86.80
2022-10-21T16:50:40.894Z,47.15
2022-10-21T16:53:14.730Z,30.80
2022-10-21T16:55:45.837Z,33.90
2022-10-21T16:58:18.348Z,28.85
2022-10-21T17:00:50.328Z,25.70
2022-10-21T17:03:20.739Z,24.27
2022-10-21T17:05:52.488Z,27.02
2022-10-21T17:08:24.819Z,27.45
2022-10-21T17:10:56.375Z,22.40
2022-10-21T17:13:28.279Z,23.55
2022-10-21T17:15:58.840Z,21.45
2022-10-21T17:18:30.231Z,25.40
2022-10-21T17:21:01.292Z,33.10
2022-10-21T17:23:32.401Z,33.25
2022-10-21T17:26:03.155Z,46.67
2022-10-21T17:28:33.913Z,23.58
2022-10-21T17:31:04.692Z,23.85
2022-10-21T17:33:35.486Z,22.50
2022-10-21T17:36:05.903Z,21.40
2022-10-21T17:38:37.391Z,21.38
2022-10-21T17:41:07.625Z,21.92
2022-10-21T17:43:38.000Z,23.40
2022-10-21T17:46:08.693Z,22.05
2022-10-21T17:48:39.016Z,23.60
2022-10-21T17:51:09.445Z,23.75
2022-10-21T17:53:40.030Z,24.83
2022-10-21T17:56:10.917Z,23.73
2022-10-21T17:58:41.182Z,21.67
2022-10-21T18:01:12.948Z,21.55
2022-10-21T18:03:43.243Z,22.67
2022-10-21T18:06:14.889Z,21.25
2022-10-21T18:08:45.888Z,21.38
2022-10-21T18:11:18.408Z,18.70
2022-10-21T18:13:53.602Z,18.00
2022-10-21T18:16:26.295Z,17.92
2022-10-21T18:19:00.177Z,20.23
2022-10-21T18:21:33.970Z,20.65
2022-10-21T18:24:06.440Z,28.65
2022-10-21T18:26:39.246Z,28.02
2022-10-21T18:29:09.987Z,21.15
2022-10-21T18:31:40.800Z,21.67
2022-10-21T18:34:14.277Z,22.88
2022-10-21T18:36:45.023Z,17.40
2022-10-21T18:39:16.030Z,19.98
2022-10-21T18:41:46.878Z,19.77
2022-10-21T18:44:17.192Z,19.80
2022-10-21T18:46:50.172Z,17.77
2022-10-21T18:49:22.507Z,16.67
2022-10-21T18:51:53.266Z,16.27
2022-10-21T18:54:24.309Z,15.85
2022-10-21T18:56:54.613Z,14.48
2022-10-21T18:59:25.082Z,15.10
2022-10-21T19:01:56.425Z,14.70
2022-10-21T19:04:27.470Z,15.13
2022-10-21T19:06:58.088Z,17.52
2022-10-21T19:09:28.827Z,17.08
2022-10-21T19:12:01.969Z,19.23
2022-10-21T19:14:33.975Z,19.02
2022-10-21T19:17:04.112Z,16.95
2022-10-21T19:19:38.546Z,16.52
2022-10-21T19:22:09.714Z,16.08
2022-10-21T19:24:40.361Z,14.85
2022-10-21T19:27:11.119Z,16.23
2022-10-21T19:29:41.589Z,16.02
2022-10-21T19:32:12.208Z,15.95
2022-10-21T19:34:42.903Z,15.73
2022-10-21T19:37:14.850Z,17.45
2022-10-21T19:39:46.157Z,17.50
2022-10-21T19:42:17.085Z,17.17
2022-10-21T19:44:47.804Z,16.77
2022-10-21T19:47:18.335Z,17.70
2022-10-21T19:49:48.935Z,16.70
2022-10-21T19:52:19.583Z,16.95
2022-10-21T19:54:51.956Z,17.38
2022-10-21T19:57:22.452Z,15.88
2022-10-21T19:59:52.870Z,17.27
2022-10-21T20:02:23.129Z,16.60
2022-10-21T20:04:53.626Z,17.08
2022-10-21T20:07:24.122Z,16.30
2022-10-21T20:09:54.670Z,18.90
2022-10-21T20:12:25.196Z,18.45
2022-10-21T20:14:55.664Z,19.05
2022-10-21T20:17:26.146Z,19.33
2022-10-21T20:19:56.721Z,19.52
2022-10-21T20:22:26.993Z,19.95
2022-10-21T20:24:57.549Z,21.85
2022-10-21T20:27:27.920Z,21.08
2022-10-21T20:29:58.807Z,22.50
2022-10-21T20:32:29.616Z,23.15
2022-10-21T20:35:00.471Z,22.95
2022-10-21T20:37:30.799Z,21.20
2022-10-21T20:40:01.792Z,20.77
2022-10-21T20:42:32.336Z,20.10
2022-10-21T20:45:02.770Z,19.42
2022-10-21T20:47:32.936Z,19.27
2022-10-21T20:50:03.387Z,21.15
2022-10-21T20:52:33.681Z,20.25
2022-10-21T20:55:03.861Z,19.13
2022-10-21T20:57:34.345Z,19.75
2022-10-21T21:00:04.938Z,20.25
2022-10-21T21:02:35.122Z,22.25
2022-10-21T21:05:05.248Z,22.67
2022-10-21T21:07:35.592Z,22.75
2022-10-21T21:10:06.070Z,24.20
2022-10-21T21:12:36.620Z,22.55
2022-10-21T21:15:07.605Z,22.80
2022-10-21T21:17:38.571Z,23.77
2022-10-21T21:20:09.318Z,25.02
2022-10-21T21:22:39.575Z,24.45
2022-10-21T21:25:11.796Z,24.70
2022-10-21T21:27:42.064Z,23.67
2022-10-21T21:30:12.515Z,23.45
2022-10-21T21:32:43.474Z,24.77
2022-10-21T21:35:14.662Z,24.60
2022-10-21T21:37:44.728Z,22.85
2022-10-21T21:40:14.963Z,20.35
2022-10-21T21:42:45.181Z,20.95
2022-10-21T21:45:15.398Z,21.60
2022-10-21T21:47:46.283Z,23.60
2022-10-21T21:50:16.719Z,23.83
2022-10-21T21:52:47.487Z,22.25
2022-10-21T21:55:17.904Z,21.52
2022-10-21T21:57:48.457Z,20.95
2022-10-21T22:00:18.921Z,22.70
2022-10-21T22:02:49.865Z,24.88
2022-10-21T22:05:24.794Z,24.60
2022-10-21T22:07:56.910Z,22.80
2022-10-21T22:10:27.523Z,24.00
2022-10-21T22:12:58.120Z,23.23
2022-10-21T22:15:47.034Z,23.38
2022-10-21T22:18:18.415Z,25.25
2022-10-21T22:20:48.457Z,25.30
2022-10-21T22:23:18.858Z,22.88
2022-10-21T22:25:50.356Z,22.75
2022-10-21T22:28:20.533Z,22.48
2022-10-21T22:31:01.982Z,25.00
2022-10-21T22:33:32.262Z,21.83
2022-10-21T22:36:03.563Z,23.35
2022-10-21T22:38:34.641Z,22.73
2022-10-21T22:41:08.578Z,23.63
2022-10-21T22:43:42.396Z,22.17
2022-10-21T22:49:04.211Z,26.92
2022-10-21T22:51:34.922Z,21.95
2022-10-21T22:54:11.586Z,23.10
2022-10-21T22:56:49.729Z,24.13
2022-10-21T22:59:20.305Z,24.90
2022-10-21T23:01:50.766Z,28.73
2022-10-21T23:04:21.049Z,26.33
2022-10-21T23:06:51.678Z,27.63
2022-10-21T23:09:21.924Z,25.55
2022-10-21T23:11:53.002Z,27.05
2022-10-21T23:14:24.458Z,27.40
2022-10-21T23:16:55.286Z,27.85
2022-10-21T23:19:25.438Z,30.67
2022-10-21T23:21:55.827Z,30.10
2022-10-21T23:24:26.804Z,27.60
2022-10-21T23:26:59.192Z,28.40
2022-10-21T23:29:32.059Z,26.58
2022-10-21T23:32:02.669Z,27.90
2022-10-21T23:34:33.477Z,30.15
2022-10-21T23:37:05.152Z,30.20
2022-10-21T23:39:36.029Z,30.05
2022-10-21T23:42:06.596Z,28.50
2022-10-21T23:44:37.225Z,29.38
2022-10-21T23:47:08.351Z,27.58
2022-10-21T23:49:38.971Z,29.75
2022-10-21T23:52:09.907Z,28.77
2022-10-21T23:54:41.022Z,25.98
2022-10-21T23:57:11.659Z,27.52
2022-10-21T23:59:42.130Z,28.42
